createdAt,value
2017-10-11T00:00:43.994Z,98.85
2017-10-11T00:01:43.979Z,98.85
2017-10-11T00:02:43.952Z,98.85
2017-10-11T00:03:43.933Z,98.75
2017-10-11T00:04:43.922Z,98.57
2017-10-11T00:05:43.891Z,98.61
2017-10-11T00:06:43.890Z,99.04
2017-10-11T00:07:43.851Z,98.47
2017-10-11T00:08:43.829Z,98.80
2017-10-11T00:09:43.834Z,99.33
2017-10-11T00:10:43.803Z,98.66
2017-10-11T00:11:43.780Z,98.57
2017-10-11T00:12:43.759Z,98.47
2017-10-11T00:13:43.741Z,98.08
2017-10-11T00:14:43.724Z,99.33
2017-10-11T00:15:43.708Z,98.66
2017-10-11T00:16:43.696Z,98.08
2017-10-11T00:17:43.677Z,98.57
2017-10-11T00:18:43.646Z,98.47
2017-10-11T00:19:43.660Z,98.37
2017-10-11T00:20:43.631Z,98.57
2017-10-11T00:21:43.591Z,98.37
2017-10-11T00:22:43.572Z,98.94
2017-10-11T00:23:43.570Z,98.75
2017-10-11T00:24:43.540Z,98.75
2017-10-11T00:25:43.533Z,99.04
2017-10-11T00:26:43.503Z,98.85
2017-10-11T00:27:43.476Z,98.85
2017-10-11T00:28:43.461Z,98.28
2017-10-11T00:29:43.437Z,98.08
2017-10-11T00:30:43.428Z,98.75
2017-10-11T00:31:43.402Z,98.94
2017-10-11T00:32:43.382Z,98.18
2017-10-11T00:33:43.364Z,98.94
2017-10-11T00:34:43.348Z,98.66
2017-10-11T00:35:43.337Z,98.47
2017-10-11T00:36:43.312Z,98.37
2017-10-11T00:37:43.293Z,97.99
2017-10-11T00:38:43.289Z,98.18
2017-10-11T00:39:43.252Z,98.28
2017-10-11T00:40:43.232Z,97.99
2017-10-11T00:41:43.219Z,98.57
2017-10-11T00:42:43.213Z,97.61
2017-10-11T00:43:43.178Z,97.80
2017-10-11T00:44:43.145Z,97.89
2017-10-11T00:45:43.141Z,97.80
2017-10-11T00:46:43.117Z,97.80
2017-10-11T00:47:43.121Z,97.99
2017-10-11T00:48:43.083Z,97.80
2017-10-11T00:49:43.062Z,97.71
2017-10-11T00:50:43.043Z,97.80
2017-10-11T00:51:43.028Z,97.80
2017-10-11T00:52:43.003Z,97.80
2017-10-11T00:53:42.987Z,97.99
2017-10-11T00:54:42.956Z,97.42
2017-10-11T00:55:42.953Z,97.89
2017-10-11T00:56:42.925Z,97.89
2017-10-11T00:57:42.922Z,97.52
2017-10-11T00:58:42.889Z,97.42
2017-10-11T00:59:42.870Z,97.52
2017-10-11T01:00:42.853Z,97.23
2017-10-11T01:01:42.827Z,97.03
2017-10-11T01:02:42.825Z,97.42
2017-10-11T01:03:42.789Z,97.61
2017-10-11T01:04:42.769Z,97.42
2017-10-11T01:05:42.767Z,97.42
2017-10-11T01:06:42.737Z,97.32
2017-10-11T01:07:42.711Z,97.42
2017-10-11T01:08:42.713Z,97.32
2017-10-11T01:09:42.694Z,97.23
2017-10-11T01:10:42.691Z,96.75
2017-10-11T01:11:42.648Z,96.94
2017-10-11T01:12:42.616Z,96.75
2017-10-11T01:13:42.611Z,96.84
2017-10-11T01:14:42.589Z,96.56
2017-10-11T01:15:42.569Z,96.66
2017-10-11T01:16:42.547Z,96.37
2017-10-11T01:17:42.523Z,96.37
2017-10-11T01:18:42.516Z,97.03
2017-10-11T01:19:42.499Z,96.94
2017-10-11T01:20:42.479Z,97.13
2017-10-11T01:21:42.451Z,96.84
2017-10-11T01:22:42.434Z,96.75
2017-10-11T01:23:42.414Z,96.94
2017-10-11T01:24:42.397Z,97.03
2017-10-11T01:25:42.372Z,96.84
2017-10-11T01:26:42.365Z,97.03
2017-10-11T01:27:42.353Z,96.66
2017-10-11T01:28:42.317Z,96.94
2017-10-11T01:29:42.297Z,96.94
2017-10-11T01:30:42.282Z,96.84
2017-10-11T01:31:42.270Z,96.84
2017-10-11T01:32:42.241Z,96.84
2017-10-11T01:33:42.235Z,97.42
2017-10-11T01:34:42.217Z,97.32
2017-10-11T01:35:42.190Z,97.03
2017-10-11T01:36:42.183Z,96.84
2017-10-11T01:37:42.149Z,96.94
2017-10-11T01:38:42.146Z,97.13
2017-10-11T01:39:42.114Z,96.84
2017-10-11T01:40:42.097Z,96.75
2017-10-11T01:41:42.071Z,96.94
2017-10-11T01:42:42.059Z,96.66
2017-10-11T01:43:42.031Z,97.23
2017-10-11T01:44:42.020Z,96.84
2017-10-11T01:45:42.009Z,97.13
2017-10-11T01:46:41.972Z,96.37
2017-10-11T01:47:41.955Z,97.13
2017-10-11T01:48:41.945Z,96.46
2017-10-11T01:49:41.926Z,96.56
2017-10-11T01:50:41.905Z,96.56
2017-10-11T01:51:41.892Z,96.27
2017-10-11T01:52:41.866Z,96.27
2017-10-11T01:53:41.840Z,96.56
2017-10-11T01:54:41.823Z,96.46
2017-10-11T01:55:41.810Z,96.27
2017-10-11T01:56:41.802Z,96.08
2017-10-11T01:57:41.782Z,97.32
2017-10-11T01:58:41.748Z,96.84
2017-10-11T01:59:41.738Z,96.56
2017-10-11T02:00:41.714Z,97.13
2017-10-11T02:01:41.694Z,97.32
2017-10-11T02:02:41.676Z,96.27
2017-10-11T02:03:41.657Z,97.13
2017-10-11T02:04:41.658Z,97.32
2017-10-11T02:05:41.625Z,97.13
2017-10-11T02:06:41.593Z,97.13
2017-10-11T02:07:41.590Z,97.13
2017-10-11T02:08:41.568Z,96.37
2017-10-11T02:09:41.583Z,96.75
2017-10-11T02:10:41.545Z,96.37
2017-10-11T02:11:41.507Z,96.46
2017-10-11T02:12:41.513Z,96.46
2017-10-11T02:13:41.469Z,96.56
2017-10-11T02:14:41.474Z,96.75
2017-10-11T02:15:41.429Z,96.27
2017-10-11T02:16:41.422Z,96.27
2017-10-11T02:17:41.390Z,96.37
2017-10-11T02:18:41.372Z,96.46
2017-10-11T02:19:41.365Z,96.37
2017-10-11T02:20:41.360Z,96.27
2017-10-11T02:21:41.314Z,96.08
2017-10-11T02:22:41.297Z,95.61
2017-10-11T02:23:41.282Z,95.89
2017-10-11T02:24:41.294Z,95.79
2017-10-11T02:25:41.267Z,96.08
2017-10-11T02:26:41.228Z,96.17
2017-10-11T02:27:41.212Z,96.27
2017-10-11T02:28:41.212Z,96.27
2017-10-11T02:29:41.161Z,96.17
2017-10-11T02:30:41.154Z,96.46
2017-10-11T02:31:41.145Z,96.17
2017-10-11T02:32:41.109Z,96.08
2017-10-11T02:33:41.109Z,96.08
2017-10-11T02:34:41.092Z,96.17
2017-10-11T02:35:41.055Z,96.08
2017-10-11T02:36:41.041Z,96.08
2017-10-11T02:37:41.015Z,96.27
2017-10-11T02:38:40.990Z,97.27
2017-10-11T02:39:40.992Z,97.32
2017-10-11T02:40:40.967Z,97.32
2017-10-11T02:41:40.953Z,96.94
2017-10-11T02:42:40.919Z,96.84
2017-10-11T02:43:40.918Z,96.80
2017-10-11T02:44:40.898Z,96.94
2017-10-11T02:45:40.861Z,97.08
2017-10-11T02:46:40.837Z,97.03
2017-10-11T02:47:40.830Z,96.70
2017-10-11T02:48:40.817Z,96.94
2017-10-11T02:49:40.786Z,96.75
2017-10-11T02:50:40.795Z,96.61
2017-10-11T02:51:40.771Z,96.66
2017-10-11T02:52:40.737Z,96.80
2017-10-11T02:53:40.722Z,96.61
2017-10-11T02:54:40.700Z,96.51
2017-10-11T02:55:40.684Z,97.08
2017-10-11T02:56:40.663Z,96.61
2017-10-11T02:57:40.647Z,96.51
2017-10-11T02:58:40.632Z,96.98
2017-10-11T02:59:40.619Z,96.80
2017-10-11T03:00:40.618Z,96.80
2017-10-11T03:01:40.574Z,96.89
2017-10-11T03:02:40.545Z,96.70
2017-10-11T03:03:40.546Z,96.80
2017-10-11T03:04:40.514Z,96.98
2017-10-11T03:05:40.486Z,96.61
2017-10-11T03:06:40.468Z,97.08
2017-10-11T03:07:40.446Z,96.70
2017-10-11T03:08:40.432Z,96.89
2017-10-11T03:09:40.425Z,96.70
2017-10-11T03:10:40.390Z,96.98
2017-10-11T03:11:40.386Z,96.80
2017-10-11T03:12:40.386Z,97.37
2017-10-11T03:13:40.350Z,97.47
2017-10-11T03:14:40.326Z,97.18
2017-10-11T03:15:40.306Z,97.66
2017-10-11T03:16:40.271Z,98.03
2017-10-11T03:17:40.268Z,97.85
2017-10-11T03:18:40.248Z,97.75
2017-10-11T03:19:40.220Z,97.75
2017-10-11T03:20:40.204Z,97.66
2017-10-11T03:21:40.192Z,97.66
2017-10-11T03:22:40.167Z,97.66
2017-10-11T03:23:40.141Z,97.47
2017-10-11T03:24:40.136Z,97.94
2017-10-11T03:25:40.104Z,97.94
2017-10-11T03:26:40.094Z,97.85
2017-10-11T03:27:40.081Z,98.03
2017-10-11T03:28:40.060Z,97.75
2017-10-11T03:29:40.032Z,98.23
2017-10-11T03:30:40.012Z,97.66
2017-10-11T03:31:39.998Z,97.47
2017-10-11T03:32:39.968Z,97.94
2017-10-11T03:33:39.953Z,97.85
2017-10-11T03:34:39.937Z,97.85
2017-10-11T03:35:39.922Z,97.37
2017-10-11T03:36:39.920Z,97.18
2017-10-11T03:37:39.886Z,97.27
2017-10-11T03:38:39.867Z,97.18
2017-10-11T03:39:39.840Z,97.08
2017-10-11T03:40:39.816Z,97.18
2017-10-11T03:41:39.812Z,97.18
2017-10-11T03:42:39.789Z,97.37
2017-10-11T03:43:39.774Z,96.98
2017-10-11T03:44:39.765Z,97.27
2017-10-11T03:45:39.727Z,97.18
2017-10-11T03:46:39.709Z,97.47
2017-10-11T03:47:39.700Z,97.18
2017-10-11T03:48:39.679Z,97.08
2017-10-11T03:49:39.657Z,97.37
2017-10-11T03:50:39.638Z,97.75
2017-10-11T03:51:39.615Z,97.66
2017-10-11T03:52:39.607Z,97.56
2017-10-11T03:53:39.626Z,97.75
2017-10-11T03:54:39.556Z,97.85
2017-10-11T03:55:39.542Z,98.42
2017-10-11T03:56:39.519Z,98.13
2017-10-11T03:57:39.503Z,98.42
2017-10-11T03:58:39.479Z,97.94
2017-10-11T03:59:39.472Z,97.75
2017-10-11T04:00:39.444Z,97.94
2017-10-11T04:01:39.430Z,98.52
2017-10-11T04:02:39.419Z,98.61
2017-10-11T04:03:39.401Z,98.42
2017-10-11T04:04:39.365Z,98.52
2017-10-11T04:05:39.343Z,98.23
2017-10-11T04:06:39.349Z,98.90
2017-10-11T04:07:39.793Z,98.90
2017-10-11T04:08:39.539Z,97.85
2017-10-11T04:09:39.280Z,98.52
2017-10-11T04:10:39.254Z,98.61
2017-10-11T04:11:39.252Z,98.42
2017-10-11T04:12:39.211Z,98.13
2017-10-11T04:13:39.205Z,98.13
2017-10-11T04:14:39.207Z,98.32
2017-10-11T04:15:39.155Z,98.61
2017-10-11T04:16:39.160Z,99.08
2017-10-11T04:17:39.139Z,98.90
2017-10-11T04:18:39.105Z,99.28
2017-10-11T04:19:39.120Z,99.08
2017-10-11T04:20:39.096Z,99.47
2017-10-11T04:21:39.048Z,98.90
2017-10-11T04:22:39.023Z,98.90
2017-10-11T04:23:39.022Z,98.99
2017-10-11T04:24:39.025Z,98.32
2017-10-11T04:25:38.971Z,98.61
2017-10-11T04:26:38.963Z,98.90
2017-10-11T04:27:38.929Z,98.99
2017-10-11T04:28:39.099Z,97.94
2017-10-11T04:29:38.896Z,97.56
2017-10-11T04:30:38.885Z,98.32
2017-10-11T04:31:38.864Z,98.80
2017-10-11T04:32:38.836Z,98.90
2017-10-11T04:33:38.831Z,98.13
2017-10-11T04:34:38.792Z,98.90
2017-10-11T04:35:38.809Z,98.90
2017-10-11T04:36:38.764Z,98.61
2017-10-11T04:37:38.758Z,98.52
2017-10-11T04:38:38.740Z,98.42
2017-10-11T04:39:38.691Z,98.71
2017-10-11T04:40:38.674Z,98.52
2017-10-11T04:41:38.657Z,98.52
2017-10-11T04:42:38.643Z,98.71
2017-10-11T04:43:38.623Z,98.61
2017-10-11T04:44:38.596Z,98.52
2017-10-11T04:45:38.583Z,98.23
2017-10-11T04:46:38.581Z,98.42
2017-10-11T04:47:38.539Z,98.42
2017-10-11T04:48:38.532Z,98.42
2017-10-11T04:49:38.519Z,98.42
2017-10-11T04:50:38.481Z,98.32
2017-10-11T04:51:38.459Z,98.52
2017-10-11T04:52:38.449Z,99.08
2017-10-11T04:53:38.423Z,98.99
2017-10-11T04:54:38.411Z,99.28
2017-10-11T04:55:38.407Z,99.08
2017-10-11T04:56:38.378Z,98.23
2017-10-11T04:57:38.363Z,98.42
2017-10-11T04:58:38.339Z,98.42
2017-10-11T04:59:38.312Z,98.42
2017-10-11T05:00:38.296Z,98.52
2017-10-11T05:01:38.285Z,98.42
2017-10-11T05:02:38.266Z,98.61
2017-10-11T05:03:38.231Z,98.23
2017-10-11T05:04:38.240Z,98.42
2017-10-11T05:05:38.194Z,98.42
2017-10-11T05:06:38.187Z,98.90
2017-10-11T05:07:38.165Z,98.80
2017-10-11T05:08:38.151Z,98.71
2017-10-11T05:09:38.131Z,98.61
2017-10-11T05:10:38.135Z,98.71
2017-10-11T05:11:38.086Z,98.71
2017-10-11T05:12:38.079Z,98.61
2017-10-11T05:13:38.044Z,98.61
2017-10-11T05:14:38.032Z,98.42
2017-10-11T05:15:38.009Z,98.23
2017-10-11T05:16:37.998Z,98.37
2017-10-11T05:17:37.987Z,98.61
2017-10-11T05:18:37.954Z,98.42
2017-10-11T05:19:37.945Z,98.42
2017-10-11T05:20:37.944Z,98.80
2017-10-11T05:21:37.910Z,98.61
2017-10-11T05:22:37.893Z,98.80
2017-10-11T05:23:37.871Z,98.32
2017-10-11T05:24:37.824Z,99.47
2017-10-11T05:25:37.843Z,98.71
2017-10-11T05:26:37.795Z,98.52
2017-10-11T05:27:37.784Z,99.08
2017-10-11T05:28:37.760Z,98.61
2017-10-11T05:29:37.753Z,98.99
2017-10-11T05:30:37.745Z,98.03
2017-10-11T05:31:37.718Z,98.80
2017-10-11T05:32:37.678Z,98.61
2017-10-11T05:33:37.671Z,98.61
2017-10-11T05:34:37.653Z,98.32
2017-10-11T05:35:37.640Z,98.80
2017-10-11T05:36:37.607Z,98.99
2017-10-11T05:37:37.610Z,98.80
2017-10-11T05:38:37.583Z,98.80
2017-10-11T05:39:37.549Z,98.32
2017-10-11T05:40:37.537Z,98.23
2017-10-11T05:41:37.509Z,98.13
2017-10-11T05:42:37.488Z,98.03
2017-10-11T05:43:37.486Z,98.32
2017-10-11T05:44:37.461Z,98.23
2017-10-11T05:45:37.437Z,98.13
2017-10-11T05:46:37.411Z,98.32
2017-10-11T05:47:37.388Z,97.66
2017-10-11T05:48:37.366Z,98.03
2017-10-11T05:49:37.366Z,97.56
2017-10-11T05:50:37.341Z,97.37
2017-10-11T05:51:37.312Z,97.37
2017-10-11T05:52:37.296Z,97.27
2017-10-11T05:53:37.287Z,96.80
2017-10-11T05:54:37.263Z,97.37
2017-10-11T05:55:37.241Z,96.98
2017-10-11T05:56:37.233Z,97.47
2017-10-11T05:57:37.202Z,97.56
2017-10-11T05:58:37.189Z,97.56
2017-10-11T05:59:37.168Z,97.27
2017-10-11T06:00:37.158Z,97.27
2017-10-11T06:01:37.130Z,97.27
2017-10-11T06:02:37.137Z,97.37
2017-10-11T06:03:37.100Z,97.18
2017-10-11T06:04:37.070Z,96.89
2017-10-11T06:05:37.073Z,96.89
2017-10-11T06:06:37.040Z,96.51
2017-10-11T06:07:37.063Z,96.70
2017-10-11T06:08:37.002Z,96.03
2017-10-11T06:09:36.984Z,95.46
2017-10-11T06:10:36.955Z,95.27
2017-10-11T06:11:36.942Z,94.98
2017-10-11T06:12:36.917Z,94.79
2017-10-11T06:13:36.898Z,95.46
2017-10-11T06:14:36.893Z,94.70
2017-10-11T06:15:36.868Z,94.51
2017-10-11T06:16:36.860Z,94.70
2017-10-11T06:17:36.820Z,94.79
2017-10-11T06:18:36.805Z,94.60
2017-10-11T06:19:36.788Z,95.08
2017-10-11T06:20:36.761Z,94.70
2017-10-11T06:21:36.756Z,94.70
2017-10-11T06:22:36.729Z,94.12
2017-10-11T06:23:36.704Z,94.22
2017-10-11T06:24:36.691Z,93.65
2017-10-11T06:25:36.722Z,93.74
2017-10-11T06:26:36.653Z,93.93
2017-10-11T06:27:36.733Z,94.12
2017-10-11T06:28:36.613Z,93.55
2017-10-11T06:29:36.615Z,94.27
2017-10-11T06:30:36.664Z,93.88
2017-10-11T06:31:36.558Z,93.02
2017-10-11T06:32:36.534Z,93.02
2017-10-11T06:33:36.715Z,92.55
2017-10-11T06:34:36.507Z,92.83
2017-10-11T06:35:36.510Z,92.45
2017-10-11T06:36:36.495Z,92.64
2017-10-11T06:37:36.490Z,92.45
2017-10-11T06:38:36.496Z,92.55
2017-10-11T06:39:36.452Z,92.74
2017-10-11T06:40:36.439Z,92.64
2017-10-11T06:41:36.683Z,92.55
2017-10-11T06:42:36.379Z,92.64
2017-10-11T06:43:36.395Z,92.55
2017-10-11T06:44:36.410Z,92.74
2017-10-11T06:45:36.342Z,92.74
2017-10-11T06:46:36.302Z,93.12
2017-10-11T06:47:36.302Z,92.64
2017-10-11T06:48:36.324Z,92.64
2017-10-11T06:49:36.398Z,92.64
2017-10-11T06:50:36.203Z,93.02
2017-10-11T06:51:36.202Z,92.64
2017-10-11T06:52:36.263Z,92.74
2017-10-11T06:53:36.364Z,93.31
2017-10-11T06:54:36.180Z,93.21
2017-10-11T06:55:36.298Z,93.50
2017-10-11T06:56:36.097Z,93.02
2017-10-11T06:57:36.266Z,93.50
2017-10-11T06:58:36.033Z,93.60
2017-10-11T06:59:36.047Z,93.88
2017-10-11T07:00:36.026Z,93.60
2017-10-11T07:01:36.019Z,93.98
2017-10-11T07:02:35.975Z,93.60
2017-10-11T07:03:35.947Z,93.60
2017-10-11T07:04:35.917Z,93.98
2017-10-11T07:05:36.021Z,93.93
2017-10-11T07:06:35.919Z,93.84
2017-10-11T07:07:35.891Z,94.46
2017-10-11T07:08:35.873Z,93.98
2017-10-11T07:09:35.826Z,93.79
2017-10-11T07:10:35.835Z,93.88
2017-10-11T07:11:35.828Z,92.83
2017-10-11T07:12:35.805Z,92.79
2017-10-11T07:13:35.771Z,92.30
2017-10-11T07:14:35.868Z,91.25
2017-10-11T07:15:35.727Z,90.88
2017-10-11T07:16:35.758Z,90.44
2017-10-11T07:17:35.721Z,90.53
2017-10-11T07:18:35.712Z,89.96
2017-10-11T07:19:35.667Z,89.48
2017-10-11T07:20:35.680Z,89.87
2017-10-11T07:21:35.639Z,89.77
2017-10-11T07:22:35.585Z,89.77
2017-10-11T07:23:35.578Z,89.58
2017-10-11T07:24:35.573Z,89.96
2017-10-11T07:25:35.540Z,89.20
2017-10-11T07:26:35.531Z,88.68
2017-10-11T07:27:35.487Z,89.06
2017-10-11T07:28:35.521Z,89.10
2017-10-11T07:29:35.482Z,89.01
2017-10-11T07:30:35.447Z,89.39
2017-10-11T07:31:35.438Z,89.48
2017-10-11T07:32:35.431Z,89.92
2017-10-11T07:33:35.453Z,89.82
2017-10-11T07:34:35.414Z,90.11
2017-10-11T07:35:35.349Z,89.82
2017-10-11T07:36:35.338Z,89.92
2017-10-11T07:37:35.334Z,89.92
2017-10-11T07:38:35.303Z,89.73
2017-10-11T07:39:35.276Z,89.44
2017-10-11T07:40:35.268Z,89.82
2017-10-11T07:41:35.571Z,89.53
2017-10-11T07:42:35.233Z,89.92
2017-10-11T07:43:35.211Z,90.11
2017-10-11T07:44:35.189Z,89.44
2017-10-11T07:45:35.175Z,89.73
2017-10-11T07:46:35.139Z,89.34
2017-10-11T07:47:35.175Z,89.44
2017-10-11T07:48:35.111Z,90.11
2017-10-11T07:49:35.085Z,90.20
2017-10-11T07:50:35.080Z,90.30
2017-10-11T07:51:35.069Z,90.78
2017-10-11T07:52:35.037Z,90.49
2017-10-11T07:53:35.007Z,90.39
2017-10-11T07:54:34.996Z,90.11
2017-10-11T07:55:35.005Z,90.49
2017-10-11T07:56:35.005Z,89.63
2017-10-11T07:57:34.936Z,90.20
2017-10-11T07:58:34.919Z,90.11
2017-10-11T07:59:34.924Z,90.11
2017-10-11T08:00:34.899Z,90.59
2017-10-11T08:01:34.913Z,89.44
2017-10-11T08:02:34.877Z,90.39
2017-10-11T08:03:34.874Z,90.59
2017-10-11T08:04:34.841Z,90.30
2017-10-11T08:05:34.802Z,90.78
2017-10-11T08:06:34.788Z,90.20
2017-10-11T08:07:34.752Z,90.11
2017-10-11T08:08:34.734Z,90.11
2017-10-11T08:09:34.720Z,90.20
2017-10-11T08:10:34.727Z,89.82
2017-10-11T08:11:34.683Z,90.30
2017-10-11T08:12:34.661Z,90.30
2017-10-11T08:13:34.638Z,90.39
2017-10-11T08:14:34.633Z,90.20
2017-10-11T08:15:34.646Z,90.39
2017-10-11T08:16:34.620Z,90.78
2017-10-11T08:17:34.586Z,90.88
2017-10-11T08:18:34.554Z,91.06
2017-10-11T08:19:34.550Z,90.78
2017-10-11T08:20:34.537Z,90.68
2017-10-11T08:21:34.519Z,91.06
2017-10-11T08:22:34.481Z,91.35
2017-10-11T08:23:34.494Z,91.25
2017-10-11T08:24:34.458Z,91.35
2017-10-11T08:25:34.465Z,90.68
2017-10-11T08:26:34.410Z,90.68
2017-10-11T08:27:34.392Z,90.39
2017-10-11T08:28:34.383Z,90.88
2017-10-11T08:29:34.344Z,90.49
2017-10-11T08:30:34.319Z,90.68
2017-10-11T08:31:34.364Z,90.78
2017-10-11T08:32:34.295Z,90.06
2017-10-11T08:33:34.290Z,89.77
2017-10-11T08:34:34.270Z,89.48
2017-10-11T08:35:34.235Z,89.20
2017-10-11T08:36:34.221Z,89.58
2017-10-11T08:37:34.208Z,89.48
2017-10-11T08:38:34.180Z,89.77
2017-10-11T08:39:34.169Z,89.87
2017-10-11T08:40:34.149Z,89.48
2017-10-11T08:41:34.150Z,89.20
2017-10-11T08:42:34.136Z,89.48
2017-10-11T08:43:34.112Z,89.67
2017-10-11T08:44:34.090Z,89.29
2017-10-11T08:45:34.064Z,88.62
2017-10-11T08:46:34.033Z,88.72
2017-10-11T08:47:34.013Z,88.72
2017-10-11T08:48:34.018Z,88.81
2017-10-11T08:49:33.990Z,88.81
2017-10-11T08:50:33.960Z,88.43
2017-10-11T08:51:33.948Z,88.53
2017-10-11T08:52:33.919Z,88.81
2017-10-11T08:53:33.913Z,88.72
2017-10-11T08:54:33.898Z,88.43
2017-10-11T08:55:33.875Z,88.81
2017-10-11T08:56:33.886Z,88.81
2017-10-11T08:57:33.836Z,88.91
2017-10-11T08:58:33.811Z,88.91
2017-10-11T08:59:33.791Z,88.72
2017-10-11T09:00:33.776Z,88.43
2017-10-11T09:01:33.778Z,87.43
2017-10-11T09:02:33.741Z,87.90
2017-10-11T09:03:33.723Z,87.04
2017-10-11T09:04:33.694Z,86.66
2017-10-11T09:05:33.690Z,86.94
2017-10-11T09:06:33.665Z,86.66
2017-10-11T09:07:33.656Z,86.66
2017-10-11T09:08:33.635Z,85.80
2017-10-11T09:09:33.622Z,84.75
2017-10-11T09:10:33.612Z,84.79
2017-10-11T09:11:33.571Z,84.50
2017-10-11T09:12:33.555Z,84.79
2017-10-11T09:13:33.567Z,84.50
2017-10-11T09:14:33.527Z,84.74
2017-10-11T09:15:33.503Z,84.02
2017-10-11T09:16:33.484Z,84.64
2017-10-11T09:17:33.462Z,83.78
2017-10-11T09:18:33.452Z,83.68
2017-10-11T09:19:33.429Z,83.20
2017-10-11T09:20:33.423Z,83.39
2017-10-11T09:21:33.397Z,83.30
2017-10-11T09:22:33.395Z,83.49
2017-10-11T09:23:33.358Z,82.92
2017-10-11T09:24:33.339Z,82.92
2017-10-11T09:25:33.330Z,82.34
2017-10-11T09:26:33.306Z,82.43
2017-10-11T09:27:33.297Z,83.11
2017-10-11T09:28:33.282Z,82.53
2017-10-11T09:29:33.254Z,81.29
2017-10-11T09:30:33.246Z,81.29
2017-10-11T09:31:33.230Z,80.90
2017-10-11T09:32:33.207Z,81.10
2017-10-11T09:33:33.185Z,80.90
2017-10-11T09:34:33.182Z,81.00
2017-10-11T09:35:33.151Z,81.10
2017-10-11T09:36:33.136Z,81.57
2017-10-11T09:37:33.109Z,81.48
2017-10-11T09:38:33.110Z,80.90
2017-10-11T09:39:33.079Z,81.23
2017-10-11T09:40:33.061Z,81.43
2017-10-11T09:41:33.070Z,80.37
2017-10-11T09:42:33.034Z,78.93
2017-10-11T09:43:33.003Z,78.74
2017-10-11T09:44:32.988Z,78.27
2017-10-11T09:45:32.983Z,78.78
2017-10-11T09:46:32.964Z,78.88
2017-10-11T09:47:32.934Z,78.88
2017-10-11T09:48:32.913Z,78.88
2017-10-11T09:49:32.900Z,78.74
2017-10-11T09:50:32.889Z,78.93
2017-10-11T09:51:32.902Z,78.93
2017-10-11T09:52:32.852Z,78.64
2017-10-11T09:53:32.833Z,79.22
2017-10-11T09:54:32.834Z,78.64
2017-10-11T09:55:32.797Z,79.08
2017-10-11T09:56:33.346Z,80.08
2017-10-11T09:57:32.764Z,80.04
2017-10-11T09:58:32.753Z,79.99
2017-10-11T09:59:32.723Z,79.22
2017-10-11T10:00:32.717Z,79.18
2017-10-11T10:01:32.704Z,80.14
2017-10-11T10:02:32.681Z,79.85
2017-10-11T10:03:32.661Z,80.14
2017-10-11T10:04:32.642Z,80.04
2017-10-11T10:05:32.615Z,80.04
2017-10-11T10:06:32.603Z,80.24
2017-10-11T10:07:32.594Z,80.37
2017-10-11T10:08:32.567Z,80.08
2017-10-11T10:09:32.556Z,79.60
2017-10-11T10:10:32.541Z,78.64
2017-10-11T10:11:32.522Z,77.97
2017-10-11T10:12:32.520Z,77.40
2017-10-11T10:13:32.492Z,78.07
2017-10-11T10:14:32.470Z,78.45
2017-10-11T10:15:32.467Z,78.45
2017-10-11T10:16:32.429Z,78.45
2017-10-11T10:17:32.429Z,77.69
2017-10-11T10:18:32.397Z,77.97
2017-10-11T10:19:32.396Z,77.78
2017-10-11T10:20:32.363Z,77.53
2017-10-11T10:21:32.353Z,77.06
2017-10-11T10:22:32.321Z,76.77
2017-10-11T10:23:32.317Z,76.39
2017-10-11T10:24:32.297Z,75.52
2017-10-11T10:25:32.271Z,75.90
2017-10-11T10:26:32.263Z,75.90
2017-10-11T10:27:32.241Z,75.71
2017-10-11T10:28:32.233Z,76.52
2017-10-11T10:29:32.202Z,76.52
2017-10-11T10:30:32.186Z,75.46
2017-10-11T10:31:32.173Z,75.75
2017-10-11T10:32:32.152Z,75.52
2017-10-11T10:33:32.137Z,75.95
2017-10-11T10:34:32.116Z,76.39
2017-10-11T10:35:32.100Z,76.00
2017-10-11T10:36:32.084Z,75.62
2017-10-11T10:37:32.070Z,75.71
2017-10-11T10:38:32.057Z,75.04
2017-10-11T10:39:32.043Z,75.43
2017-10-11T10:40:32.019Z,75.04
2017-10-11T10:41:32.021Z,75.23
2017-10-11T10:42:31.987Z,75.46
2017-10-11T10:43:31.980Z,75.27
2017-10-11T10:44:31.950Z,75.31
2017-10-11T10:45:31.932Z,75.12
2017-10-11T10:46:31.930Z,74.83
2017-10-11T10:47:31.900Z,74.54
2017-10-11T10:48:31.892Z,74.93
2017-10-11T10:49:31.874Z,73.39
2017-10-11T10:50:31.862Z,72.91
2017-10-11T10:51:31.831Z,72.91
2017-10-11T10:52:31.815Z,73.20
2017-10-11T10:53:31.814Z,73.55
2017-10-11T10:54:31.790Z,73.35
2017-10-11T10:55:31.767Z,73.45
2017-10-11T10:56:31.756Z,73.16
2017-10-11T10:57:31.741Z,73.26
2017-10-11T10:58:31.715Z,73.74
2017-10-11T10:59:31.701Z,73.70
2017-10-11T11:00:31.685Z,74.47
2017-10-11T11:01:31.674Z,75.43
2017-10-11T11:02:31.664Z,75.23
2017-10-11T11:03:31.641Z,75.27
2017-10-11T11:04:31.613Z,74.85
2017-10-11T11:05:31.615Z,75.23
2017-10-11T11:06:31.587Z,75.90
2017-10-11T11:07:31.570Z,76.19
2017-10-11T11:08:31.563Z,76.19
2017-10-11T11:09:31.526Z,76.57
2017-10-11T11:10:31.544Z,76.67
2017-10-11T11:11:31.502Z,76.29
2017-10-11T11:12:31.486Z,76.19
2017-10-11T11:13:31.463Z,76.48
2017-10-11T11:14:31.449Z,76.57
2017-10-11T11:15:31.444Z,76.48
2017-10-11T11:16:31.425Z,76.10
2017-10-11T11:17:31.410Z,75.90
2017-10-11T11:18:31.382Z,75.71
2017-10-11T11:19:31.380Z,75.71
2017-10-11T11:20:31.347Z,75.43
2017-10-11T11:21:31.335Z,75.81
2017-10-11T11:22:31.319Z,75.27
2017-10-11T11:23:31.303Z,74.79
2017-10-11T11:24:31.300Z,73.87
2017-10-11T11:25:31.266Z,73.00
2017-10-11T11:26:31.253Z,73.30
2017-10-11T11:27:31.694Z,73.30
2017-10-11T11:28:31.222Z,73.30
2017-10-11T11:29:31.196Z,72.63
2017-10-11T11:30:31.186Z,72.72
2017-10-11T11:31:31.167Z,71.66
2017-10-11T11:32:31.171Z,72.33
2017-10-11T11:33:31.133Z,71.47
2017-10-11T11:34:31.124Z,72.05
2017-10-11T11:35:31.871Z,72.33
2017-10-11T11:36:31.078Z,72.72
2017-10-11T11:37:31.096Z,72.63
2017-10-11T11:38:31.049Z,73.10
2017-10-11T11:39:31.047Z,72.24
2017-10-11T11:40:31.039Z,71.37
2017-10-11T11:41:31.019Z,72.43
2017-10-11T11:42:30.986Z,72.33
2017-10-11T11:43:30.975Z,72.72
2017-10-11T11:44:30.968Z,71.95
2017-10-11T11:45:30.936Z,72.72
2017-10-11T11:46:30.923Z,72.63
2017-10-11T11:47:30.916Z,72.63
2017-10-11T11:48:30.885Z,71.57
2017-10-11T11:49:30.872Z,71.28
2017-10-11T11:50:30.849Z,72.24
2017-10-11T11:51:30.834Z,72.72
2017-10-11T11:52:30.826Z,73.10
2017-10-11T11:53:30.803Z,72.63
2017-10-11T11:54:30.803Z,71.82
2017-10-11T11:55:30.783Z,72.88
2017-10-11T11:56:30.774Z,73.93
2017-10-11T11:57:30.744Z,74.31
2017-10-11T11:58:30.736Z,74.31
2017-10-11T11:59:30.739Z,73.55
2017-10-11T12:00:30.697Z,73.74
2017-10-11T12:01:30.677Z,74.31
2017-10-11T12:02:30.672Z,74.51
2017-10-11T12:03:30.642Z,74.02
2017-10-11T12:04:30.629Z,72.68
2017-10-11T12:05:30.611Z,73.13
2017-10-11T12:06:30.607Z,74.37
2017-10-11T12:07:30.574Z,74.47
2017-10-11T12:08:30.556Z,74.27
2017-10-11T12:09:30.566Z,74.08
2017-10-11T12:10:30.524Z,74.66
2017-10-11T12:11:30.535Z,74.79
2017-10-11T12:12:30.499Z,73.32
2017-10-11T12:13:30.487Z,72.84
2017-10-11T12:14:30.462Z,72.78
2017-10-11T12:15:30.439Z,73.26
2017-10-11T12:16:30.420Z,72.88
2017-10-11T12:17:30.419Z,73.26
2017-10-11T12:18:30.387Z,72.39
2017-10-11T12:19:30.367Z,71.92
2017-10-11T12:20:30.356Z,72.49
2017-10-11T12:21:30.337Z,72.59
2017-10-11T12:22:30.316Z,72.20
2017-10-11T12:23:30.308Z,72.68
2017-10-11T12:24:30.285Z,71.72
2017-10-11T12:25:30.270Z,72.39
2017-10-11T12:26:30.274Z,72.30
2017-10-11T12:27:30.235Z,72.11
2017-10-11T12:28:30.221Z,72.30
2017-10-11T12:29:30.211Z,72.49
2017-10-11T12:30:30.204Z,72.49
2017-10-11T12:31:30.174Z,72.20
2017-10-11T12:32:30.156Z,72.59
2017-10-11T12:33:30.159Z,71.72
2017-10-11T12:34:30.134Z,71.25
2017-10-11T12:35:30.096Z,71.25
2017-10-11T12:36:30.095Z,71.63
2017-10-11T12:37:30.072Z,72.11
2017-10-11T12:38:30.053Z,72.59
2017-10-11T12:39:30.031Z,72.59
2017-10-11T12:40:30.914Z,72.07
2017-10-11T12:41:30.017Z,72.74
2017-10-11T12:42:29.982Z,73.70
2017-10-11T12:43:29.961Z,72.17
2017-10-11T12:44:29.949Z,72.80
2017-10-11T12:45:29.933Z,73.66
2017-10-11T12:46:29.909Z,73.86
2017-10-11T12:47:29.886Z,74.15
2017-10-11T12:48:29.877Z,73.47
2017-10-11T12:49:29.861Z,74.43
2017-10-11T12:50:29.840Z,74.91
2017-10-11T12:51:29.835Z,75.10
2017-10-11T12:52:29.809Z,75.16